CDT,Max TemperatureF,Mean TemperatureF,Min TemperatureF,Max Dew PointF,MeanDew PointF,Min DewpointF,Max Humidity, Mean Humidity, Min Humidity, Max Sea Level PressureIn, Mean Sea Level PressureIn, Min Sea Level PressureIn, Max VisibilityMiles, Mean VisibilityMiles, Min VisibilityMiles, Max Wind SpeedMPH, Mean Wind SpeedMPH, Max Gust SpeedMPH,PrecipitationIn, CloudCover, Events, WindDirDegrees
2011-10-1,67,48,29,38,33,28,96,61,26,30.37,30.28,30.22,10,10,8,15,7,21,0.00,0,,166
2011-10-2,80,60,39,37,36,34,85,53,21,30.25,30.18,30.12,10,10,7,15,8,21,0.00,0,,185
2011-10-3,80,60,39,40,37,35,86,53,20,30.22,30.17,30.12,10,10,9,18,8,23,0.00,0,,174
2011-10-4,86,64,42,46,41,35,76,50,24,30.16,30.09,30.02,10,10,7,24,12,30,0.00,0,,167
2011-10-5,85,68,51,46,43,35,77,48,18,30.08,30.04,29.99,10,10,10,22,11,30,0.00,0,,175
2011-10-6,81,66,50,45,42,39,71,47,23,30.05,29.98,29.91,10,10,9,31,15,38,0.00,0,,154
2011-10-7,83,74,65,59,54,46,61,52,42,29.93,29.89,29.84,10,10,7,37,24,47,0.00,1,,177
2011-10-8,80,71,62,61,56,52,84,64,43,30.10,30.02,29.93,10,10,9,26,14,36,T,3,,182
2011-10-9,81,67,52,55,51,47,89,61,32,30.20,30.12,30.06,10,10,9,23,12,30,0.00,0,,161
2011-10-10,68,59,50,59,53,48,100,80,60,30.05,29.99,29.92,10,9,4,18,10,23,0.04,2,Rain,174
2011-10-11,75,60,45,56,48,45,100,69,38,29.93,29.86,29.77,10,6,1,23,11,28,0.02,2,Rain-Thunderstorm,175
2011-10-12,61,57,52,57,54,50,97,87,75,29.78,29.72,29.68,10,8,2,9,6,,0.09,5,Rain-Thunderstorm,319
2011-10-13,66,55,46,49,45,41,92,77,46,29.75,29.72,29.69,10,10,8,22,10,26,0.07,1,Rain,306
2011-10-14,59,51,42,43,40,35,89,65,40,29.94,29.83,29.73,10,10,10,24,14,32,0.00,4,,305
2011-10-15,63,50,37,42,35,28,92,60,27,29.99,29.91,29.83,10,10,3,16,7,22,0.02,1,Rain,295
2011-10-16,59,49,38,43,34,26,92,61,30,30.01,29.96,29.86,10,10,10,23,11,33,0.03,1,,305
2011-10-17,58,46,33,33,29,24,82,55,28,30.00,29.97,29.93,10,10,10,23,11,31,0.00,0,,292
2011-10-18,49,40,31,34,28,21,82,61,39,30.09,30.03,29.94,10,10,10,29,15,36,0.00,3,,333
2011-10-19,48,38,27,32,28,22,85,69,53,30.14,30.10,30.07,10,10,10,23,14,28,0.00,5,,346
2011-10-20,54,40,26,33,28,23,92,64,35,30.06,30.03,29.99,10,10,10,22,11,29,0.00,0,,326
2011-10-21,66,46,26,35,30,22,88,59,29,30.11,30.03,29.97,10,10,9,15,7,18,0.00,0,,241
2011-10-22,63,47,30,38,35,31,89,63,36,30.16,30.08,29.99,10,9,5,10,5,14,0.00,2,,322
2011-10-23,72,54,36,45,40,32,86,59,31,29.99,29.90,29.80,10,9,5,28,12,35,0.01,3,Rain,262
2011-10-24,70,51,32,40,33,29,92,57,22,30.06,30.00,29.86,10,10,7,15,8,21,0.00,1,,221
2011-10-25,59,49,39,44,37,33,79,66,52,30.03,29.86,29.74,10,10,10,26,14,37,0.00,2,,19
2011-10-26,51,43,35,38,35,31,85,71,56,30.13,30.08,30.03,10,10,10,16,8,18,0.00,4,,337
2011-10-27,53,39,25,33,23,18,92,59,26,30.13,30.10,30.07,10,9,1,15,8,23,0.00,0,,269
2011-10-28,57,42,27,30,21,16,65,45,24,30.13,30.10,30.06,10,10,10,30,13,37,0.00,2,,275
2011-10-29,56,38,20,25,20,14,77,51,24,30.12,30.01,29.83,10,10,10,22,10,28,0.00,1,,174
2011-10-30,53,41,29,36,30,23,76,57,38,30.02,29.90,29.79,10,10,10,30,16,37,0.00,5,,305
2011-10-31,58,40,22,30,25,20,88,58,28,30.07,30.01,29.92,10,10,8,17,9,22,0.00,1,,227